sensor_id;sensor_type;location;lat;lon;timestamp;temperature;humidity
10885;DHT22;5495;53.252;10.390;2022-11-24T00:02:17;4.20;99.90
10885;DHT22;5495;53.252;10.390;2022-11-24T00:04:47;4.20;99.90
10885;DHT22;5495;53.252;10.390;2022-11-24T00:07:14;4.20;99.90
10885;DHT22;5495;53.252;10.390;2022-11-24T00:09:41;4.30;99.90
10885;DHT22;5495;53.252;10.390;2022-11-24T00:12:08;4.30;99.90
10885;DHT22;5495;53.252;10.390;2022-11-24T00:14:35;4.30;99.90
10885;DHT22;5495;53.252;10.390;2022-11-24T00:17:02;4.30;99.90
10885;DHT22;5495;53.252;10.390;2022-11-24T00:19:30;4.40;99.90
10885;DHT22;5495;53.252;10.390;2022-11-24T00:21:57;4.40;99.90
10885;DHT22;5495;53.252;10.390;2022-11-24T00:24:24;4.40;99.90
10885;DHT22;5495;53.252;10.390;2022-11-24T00:26:53;4.40;99.90
10885;DHT22;5495;53.252;10.390;2022-11-24T00:29:23;4.40;99.90
10885;DHT22;5495;53.252;10.390;2022-11-24T00:31:50;4.50;99.90
10885;DHT22;5495;53.252;10.390;2022-11-24T00:34:18;4.50;99.90
10885;DHT22;5495;53.252;10.390;2022-11-24T00:36:45;4.50;99.90
10885;DHT22;5495;53.252;10.390;2022-11-24T00:39:13;4.50;99.90
10885;DHT22;5495;53.252;10.390;2022-11-24T00:41:41;4.50;99.90
10885;DHT22;5495;53.252;10.390;2022-11-24T00:44:08;4.50;99.90
10885;DHT22;5495;53.252;10.390;2022-11-24T00:46:35;4.50;99.90
10885;DHT22;5495;53.252;10.390;2022-11-24T00:49:02;4.50;99.90
10885;DHT22;5495;53.252;10.390;2022-11-24T00:51:30;4.50;99.90
10885;DHT22;5495;53.252;10.390;2022-11-24T00:53:58;4.50;99.90
10885;DHT22;5495;53.252;10.390;2022-11-24T00:56:25;4.50;99.90
10885;DHT22;5495;53.252;10.390;2022-11-24T00:58:52;4.50;99.90
10885;DHT22;5495;53.252;10.390;2022-11-24T01:01:21;4.40;99.90
10885;DHT22;5495;53.252;10.390;2022-11-24T01:03:48;4.50;99.90
10885;DHT22;5495;53.252;10.390;2022-11-24T01:06:17;4.50;99.90
10885;DHT22;5495;53.252;10.390;2022-11-24T01:08:45;4.50;99.90
10885;DHT22;5495;53.252;10.390;2022-11-24T01:11:15;4.50;99.90
10885;DHT22;5495;53.252;10.390;2022-11-24T01:13:43;4.50;99.90
10885;DHT22;5495;53.252;10.390;2022-11-24T01:16:15;4.50;99.90
10885;DHT22;5495;53.252;10.390;2022-11-24T01:18:42;4.50;99.90
10885;DHT22;5495;53.252;10.390;2022-11-24T01:21:09;4.50;99.90
10885;DHT22;5495;53.252;10.390;2022-11-24T01:23:36;4.50;99.90
10885;DHT22;5495;53.252;10.390;2022-11-24T01:26:05;4.50;99.90
10885;DHT22;5495;53.252;10.390;2022-11-24T01:28:33;4.40;99.90
10885;DHT22;5495;53.252;10.390;2022-11-24T01:31:02;4.50;99.90
10885;DHT22;5495;53.252;10.390;2022-11-24T01:33:30;4.50;99.90
10885;DHT22;5495;53.252;10.390;2022-11-24T01:35:58;4.50;99.90
10885;DHT22;5495;53.252;10.390;2022-11-24T01:38:25;4.60;99.90
10885;DHT22;5495;53.252;10.390;2022-11-24T01:41:00;4.50;99.90
10885;DHT22;5495;53.252;10.390;2022-11-24T01:43:28;4.60;99.90
10885;DHT22;5495;53.252;10.390;2022-11-24T01:45:55;4.60;99.90
10885;DHT22;5495;53.252;10.390;2022-11-24T01:48:28;4.60;99.90
10885;DHT22;5495;53.252;10.390;2022-11-24T01:51:02;4.60;99.90
10885;DHT22;5495;53.252;10.390;2022-11-24T01:53:30;4.60;99.90
10885;DHT22;5495;53.252;10.390;2022-11-24T01:55:58;4.60;99.90
10885;DHT22;5495;53.252;10.390;2022-11-24T01:58:27;4.60;99.90
10885;DHT22;5495;53.252;10.390;2022-11-24T02:00:55;4.60;99.90
10885;DHT22;5495;53.252;10.390;2022-11-24T02:03:24;4.60;99.90
10885;DHT22;5495;53.252;10.390;2022-11-24T02:05:56;4.60;99.90
10885;DHT22;5495;53.252;10.390;2022-11-24T02:08:27;4.60;99.90
10885;DHT22;5495;53.252;10.390;2022-11-24T02:10:56;4.60;99.90
10885;DHT22;5495;53.252;10.390;2022-11-24T02:13:24;4.60;99.90
10885;DHT22;5495;53.252;10.390;2022-11-24T02:15:52;4.60;99.90
10885;DHT22;5495;53.252;10.390;2022-11-24T02:18:20;4.50;99.90
10885;DHT22;5495;53.252;10.390;2022-11-24T02:20:47;4.60;99.90
10885;DHT22;5495;53.252;10.390;2022-11-24T02:23:18;4.60;99.90
10885;DHT22;5495;53.252;10.390;2022-11-24T02:25:52;4.60;99.90
10885;DHT22;5495;53.252;10.390;2022-11-24T02:28:23;4.60;99.90
10885;DHT22;5495;53.252;10.390;2022-11-24T02:30:53;4.60;99.90
10885;DHT22;5495;53.252;10.390;2022-11-24T02:33:20;4.60;99.90
10885;DHT22;5495;53.252;10.390;2022-11-24T02:35:47;4.60;99.90
10885;DHT22;5495;53.252;10.390;2022-11-24T02:38:14;4.60;99.90
10885;DHT22;5495;53.252;10.390;2022-11-24T02:40:45;4.60;99.90
10885;DHT22;5495;53.252;10.390;2022-11-24T02:43:15;4.50;99.90
10885;DHT22;5495;53.252;10.390;2022-11-24T02:45:44;4.60;99.90
10885;DHT22;5495;53.252;10.390;2022-11-24T02:48:12;4.60;99.90
10885;DHT22;5495;53.252;10.390;2022-11-24T02:50:39;4.60;99.90
10885;DHT22;5495;53.252;10.390;2022-11-24T02:53:06;4.50;99.90
10885;DHT22;5495;53.252;10.390;2022-11-24T02:55:33;4.50;99.90
10885;DHT22;5495;53.252;10.390;2022-11-24T02:58:00;4.50;99.90
10885;DHT22;5495;53.252;10.390;2022-11-24T03:00:27;4.50;99.90
10885;DHT22;5495;53.252;10.390;2022-11-24T03:02:54;4.50;99.90
10885;DHT22;5495;53.252;10.390;2022-11-24T03:05:21;4.50;99.90
10885;DHT22;5495;53.252;10.390;2022-11-24T03:07:48;4.50;99.90
10885;DHT22;5495;53.252;10.390;2022-11-24T03:10:16;4.50;99.90
10885;DHT22;5495;53.252;10.390;2022-11-24T03:12:43;4.40;99.90
10885;DHT22;5495;53.252;10.390;2022-11-24T03:15:10;4.40;99.90
10885;DHT22;5495;53.252;10.390;2022-11-24T03:17:37;4.40;99.90
10885;DHT22;5495;53.252;10.390;2022-11-24T03:20:06;4.30;99.90
10885;DHT22;5495;53.252;10.390;2022-11-24T03:22:33;4.10;99.90
10885;DHT22;5495;53.252;10.390;2022-11-24T03:25:00;4.00;99.90
10885;DHT22;5495;53.252;10.390;2022-11-24T03:27:28;4.00;99.90
10885;DHT22;5495;53.252;10.390;2022-11-24T03:29:55;3.80;99.90
10885;DHT22;5495;53.252;10.390;2022-11-24T03:32:22;3.80;99.90
10885;DHT22;5495;53.252;10.390;2022-11-24T03:34:49;3.70;99.90
10885;DHT22;5495;53.252;10.390;2022-11-24T03:37:16;3.60;99.90
10885;DHT22;5495;53.252;10.390;2022-11-24T03:39:43;3.60;99.90
10885;DHT22;5495;53.252;10.390;2022-11-24T03:42:10;3.50;99.90
10885;DHT22;5495;53.252;10.390;2022-11-24T03:44:37;3.40;99.90
10885;DHT22;5495;53.252;10.390;2022-11-24T03:47:04;3.30;99.90
10885;DHT22;5495;53.252;10.390;2022-11-24T03:49:31;3.30;99.90
10885;DHT22;5495;53.252;10.390;2022-11-24T03:51:58;3.20;99.90
10885;DHT22;5495;53.252;10.390;2022-11-24T03:54:26;3.10;99.90
10885;DHT22;5495;53.252;10.390;2022-11-24T03:56:53;3.10;99.90
10885;DHT22;5495;53.252;10.390;2022-11-24T03:59:20;3.10;99.90
10885;DHT22;5495;53.252;10.390;2022-11-24T04:01:47;3.10;99.90
10885;DHT22;5495;53.252;10.390;2022-11-24T04:04:14;3.20;99.90
10885;DHT22;5495;53.252;10.390;2022-11-24T04:06:41;3.10;99.90
10885;DHT22;5495;53.252;10.390;2022-11-24T04:09:08;3.20;99.90
10885;DHT22;5495;53.252;10.390;2022-11-24T04:11:36;3.30;99.90
10885;DHT22;5495;53.252;10.390;2022-11-24T04:14:20;3.40;99.90
10885;DHT22;5495;53.252;10.390;2022-11-24T04:16:47;3.50;99.90
10885;DHT22;5495;53.252;10.390;2022-11-24T04:19:14;3.50;99.90
10885;DHT22;5495;53.252;10.390;2022-11-24T04:21:40;3.60;99.90
10885;DHT22;5495;53.252;10.390;2022-11-24T04:24:07;3.70;99.90
10885;DHT22;5495;53.252;10.390;2022-11-24T04:26:35;3.80;99.90
10885;DHT22;5495;53.252;10.390;2022-11-24T04:29:02;3.80;99.90
10885;DHT22;5495;53.252;10.390;2022-11-24T04:31:28;3.90;99.90
10885;DHT22;5495;53.252;10.390;2022-11-24T04:33:55;4.00;99.90
10885;DHT22;5495;53.252;10.390;2022-11-24T04:36:22;4.00;99.90
10885;DHT22;5495;53.252;10.390;2022-11-24T04:38:51;4.10;99.90
10885;DHT22;5495;53.252;10.390;2022-11-24T04:41:18;4.10;99.90
10885;DHT22;5495;53.252;10.390;2022-11-24T04:43:48;4.20;99.90
10885;DHT22;5495;53.252;10.390;2022-11-24T04:46:18;4.30;99.90
10885;DHT22;5495;53.252;10.390;2022-11-24T04:48:44;4.30;99.90
10885;DHT22;5495;53.252;10.390;2022-11-24T04:51:12;4.40;99.90
10885;DHT22;5495;53.252;10.390;2022-11-24T04:53:40;4.50;99.90
10885;DHT22;5495;53.252;10.390;2022-11-24T04:56:07;4.50;99.90
10885;DHT22;5495;53.252;10.390;2022-11-24T04:58:34;4.50;99.90
10885;DHT22;5495;53.252;10.390;2022-11-24T05:01:06;4.50;99.90
10885;DHT22;5495;53.252;10.390;2022-11-24T05:03:34;4.60;99.90
10885;DHT22;5495;53.252;10.390;2022-11-24T05:06:01;4.60;99.90
10885;DHT22;5495;53.252;10.390;2022-11-24T05:08:28;4.60;99.90
10885;DHT22;5495;53.252;10.390;2022-11-24T05:10:54;4.70;99.90
10885;DHT22;5495;53.252;10.390;2022-11-24T05:13:21;4.70;99.90
10885;DHT22;5495;53.252;10.390;2022-11-24T05:15:49;4.70;99.90
10885;DHT22;5495;53.252;10.390;2022-11-24T05:18:16;4.70;99.90
10885;DHT22;5495;53.252;10.390;2022-11-24T05:20:46;4.70;99.90
10885;DHT22;5495;53.252;10.390;2022-11-24T05:23:16;4.80;99.90
10885;DHT22;5495;53.252;10.390;2022-11-24T05:25:43;4.70;99.90
10885;DHT22;5495;53.252;10.390;2022-11-24T05:28:10;4.70;99.90
10885;DHT22;5495;53.252;10.390;2022-11-24T05:30:38;4.60;99.90
10885;DHT22;5495;53.252;10.390;2022-11-24T05:33:07;4.60;99.90
10885;DHT22;5495;53.252;10.390;2022-11-24T05:35:37;4.60;99.90
10885;DHT22;5495;53.252;10.390;2022-11-24T05:38:06;4.70;99.90
10885;DHT22;5495;53.252;10.390;2022-11-24T05:40:33;4.50;99.90
10885;DHT22;5495;53.252;10.390;2022-11-24T05:43:00;4.50;99.90
10885;DHT22;5495;53.252;10.390;2022-11-24T05:45:27;4.50;99.90
10885;DHT22;5495;53.252;10.390;2022-11-24T05:48:03;4.50;99.90
10885;DHT22;5495;53.252;10.390;2022-11-24T05:50:31;4.50;99.90
10885;DHT22;5495;53.252;10.390;2022-11-24T05:53:02;4.50;99.90
10885;DHT22;5495;53.252;10.390;2022-11-24T05:55:29;4.60;99.90
10885;DHT22;5495;53.252;10.390;2022-11-24T05:57:59;4.60;99.90
10885;DHT22;5495;53.252;10.390;2022-11-24T06:00:27;4.60;99.90
10885;DHT22;5495;53.252;10.390;2022-11-24T06:02:55;4.60;99.90
10885;DHT22;5495;53.252;10.390;2022-11-24T06:05:22;4.60;99.90
10885;DHT22;5495;53.252;10.390;2022-11-24T06:07:49;4.70;99.90
10885;DHT22;5495;53.252;10.390;2022-11-24T06:10:18;4.70;99.90
10885;DHT22;5495;53.252;10.390;2022-11-24T06:12:46;4.70;99.90
10885;DHT22;5495;53.252;10.390;2022-11-24T06:15:13;4.70;99.90
10885;DHT22;5495;53.252;10.390;2022-11-24T06:17:39;4.80;99.90
10885;DHT22;5495;53.252;10.390;2022-11-24T06:20:08;4.80;99.90
10885;DHT22;5495;53.252;10.390;2022-11-24T06:22:35;4.80;99.90
10885;DHT22;5495;53.252;10.390;2022-11-24T06:25:03;4.80;99.90
10885;DHT22;5495;53.252;10.390;2022-11-24T06:27:30;4.80;99.90
10885;DHT22;5495;53.252;10.390;2022-11-24T06:29:57;4.90;99.90
10885;DHT22;5495;53.252;10.390;2022-11-24T06:32:25;4.90;99.90
10885;DHT22;5495;53.252;10.390;2022-11-24T06:34:54;4.80;99.90
10885;DHT22;5495;53.252;10.390;2022-11-24T06:37:21;4.80;99.90
10885;DHT22;5495;53.252;10.390;2022-11-24T06:39:48;4.90;99.90
10885;DHT22;5495;53.252;10.390;2022-11-24T06:42:14;4.80;99.90
10885;DHT22;5495;53.252;10.390;2022-11-24T06:44:44;4.70;99.90
10885;DHT22;5495;53.252;10.390;2022-11-24T06:47:12;4.80;99.90
10885;DHT22;5495;53.252;10.390;2022-11-24T06:49:38;4.80;99.90
10885;DHT22;5495;53.252;10.390;2022-11-24T06:52:05;4.80;99.90
10885;DHT22;5495;53.252;10.390;2022-11-24T06:54:33;4.80;99.90
10885;DHT22;5495;53.252;10.390;2022-11-24T06:57:00;4.70;99.90
10885;DHT22;5495;53.252;10.390;2022-11-24T06:59:27;4.70;99.90
10885;DHT22;5495;53.252;10.390;2022-11-24T07:01:54;4.60;99.90
10885;DHT22;5495;53.252;10.390;2022-11-24T07:04:21;4.50;99.90
10885;DHT22;5495;53.252;10.390;2022-11-24T07:06:48;4.50;99.90
10885;DHT22;5495;53.252;10.390;2022-11-24T07:09:14;4.40;99.90
10885;DHT22;5495;53.252;10.390;2022-11-24T07:11:41;4.50;99.90
10885;DHT22;5495;53.252;10.390;2022-11-24T07:14:09;4.50;99.90
10885;DHT22;5495;53.252;10.390;2022-11-24T07:16:36;4.60;99.90
10885;DHT22;5495;53.252;10.390;2022-11-24T07:19:04;4.70;99.90
10885;DHT22;5495;53.252;10.390;2022-11-24T07:21:31;4.80;99.90
10885;DHT22;5495;53.252;10.390;2022-11-24T07:23:58;4.70;99.90
10885;DHT22;5495;53.252;10.390;2022-11-24T07:26:25;4.70;99.90
10885;DHT22;5495;53.252;10.390;2022-11-24T07:28:52;4.70;99.90
10885;DHT22;5495;53.252;10.390;2022-11-24T07:31:20;4.60;99.90
10885;DHT22;5495;53.252;10.390;2022-11-24T07:33:50;4.60;99.90
10885;DHT22;5495;53.252;10.390;2022-11-24T07:36:18;4.60;99.90
10885;DHT22;5495;53.252;10.390;2022-11-24T07:38:45;4.60;99.90
10885;DHT22;5495;53.252;10.390;2022-11-24T07:41:14;4.60;99.90
10885;DHT22;5495;53.252;10.390;2022-11-24T07:43:41;4.70;99.90
10885;DHT22;5495;53.252;10.390;2022-11-24T07:46:11;4.50;99.90
10885;DHT22;5495;53.252;10.390;2022-11-24T07:48:38;4.40;99.90
10885;DHT22;5495;53.252;10.390;2022-11-24T07:51:06;4.40;99.90
10885;DHT22;5495;53.252;10.390;2022-11-24T07:53:36;4.40;99.90
10885;DHT22;5495;53.252;10.390;2022-11-24T07:56:04;4.20;99.90
10885;DHT22;5495;53.252;10.390;2022-11-24T07:58:32;4.30;99.90
10885;DHT22;5495;53.252;10.390;2022-11-24T08:01:07;4.40;99.90
10885;DHT22;5495;53.252;10.390;2022-11-24T08:03:34;4.40;99.90
10885;DHT22;5495;53.252;10.390;2022-11-24T08:06:01;4.50;99.90
10885;DHT22;5495;53.252;10.390;2022-11-24T08:08:29;4.50;99.90
10885;DHT22;5495;53.252;10.390;2022-11-24T08:11:03;4.50;99.90
10885;DHT22;5495;53.252;10.390;2022-11-24T08:13:31;4.60;99.90
10885;DHT22;5495;53.252;10.390;2022-11-24T08:15:58;4.80;99.90
10885;DHT22;5495;53.252;10.390;2022-11-24T08:18:25;4.70;99.90
10885;DHT22;5495;53.252;10.390;2022-11-24T08:20:52;4.80;99.90
10885;DHT22;5495;53.252;10.390;2022-11-24T08:23:19;4.90;99.90
10885;DHT22;5495;53.252;10.390;2022-11-24T08:25:48;4.90;99.90
10885;DHT22;5495;53.252;10.390;2022-11-24T08:28:16;5.00;99.90
10885;DHT22;5495;53.252;10.390;2022-11-24T08:30:43;5.10;99.90
10885;DHT22;5495;53.252;10.390;2022-11-24T08:33:12;5.20;99.90
10885;DHT22;5495;53.252;10.390;2022-11-24T08:35:39;5.30;99.90
10885;DHT22;5495;53.252;10.390;2022-11-24T08:38:05;5.40;99.90
10885;DHT22;5495;53.252;10.390;2022-11-24T08:40:32;5.50;99.90
10885;DHT22;5495;53.252;10.390;2022-11-24T08:42:59;5.50;99.90
10885;DHT22;5495;53.252;10.390;2022-11-24T08:45:27;5.60;99.90
10885;DHT22;5495;53.252;10.390;2022-11-24T08:47:55;5.60;99.90
10885;DHT22;5495;53.252;10.390;2022-11-24T08:50:23;5.70;99.90
10885;DHT22;5495;53.252;10.390;2022-11-24T08:52:51;5.80;99.90
10885;DHT22;5495;53.252;10.390;2022-11-24T08:55:18;5.80;99.90
10885;DHT22;5495;53.252;10.390;2022-11-24T08:57:45;5.90;99.90
10885;DHT22;5495;53.252;10.390;2022-11-24T09:00:13;5.80;99.90
10885;DHT22;5495;53.252;10.390;2022-11-24T09:02:55;5.90;99.90
10885;DHT22;5495;53.252;10.390;2022-11-24T09:05:22;5.90;99.90
10885;DHT22;5495;53.252;10.390;2022-11-24T09:07:49;5.90;99.90
10885;DHT22;5495;53.252;10.390;2022-11-24T09:10:16;6.00;99.90
10885;DHT22;5495;53.252;10.390;2022-11-24T09:12:44;6.00;99.90
10885;DHT22;5495;53.252;10.390;2022-11-24T09:15:11;6.00;99.90
10885;DHT22;5495;53.252;10.390;2022-11-24T09:17:39;6.10;99.90
10885;DHT22;5495;53.252;10.390;2022-11-24T09:20:07;6.20;99.90
10885;DHT22;5495;53.252;10.390;2022-11-24T09:22:34;6.30;99.90
10885;DHT22;5495;53.252;10.390;2022-11-24T09:25:03;6.30;99.90
10885;DHT22;5495;53.252;10.390;2022-11-24T09:27:31;6.40;99.90
10885;DHT22;5495;53.252;10.390;2022-11-24T09:29:58;6.40;99.90
10885;DHT22;5495;53.252;10.390;2022-11-24T09:32:27;6.30;99.90
10885;DHT22;5495;53.252;10.390;2022-11-24T09:34:57;6.40;99.90
10885;DHT22;5495;53.252;10.390;2022-11-24T09:37:25;6.40;99.90
10885;DHT22;5495;53.252;10.390;2022-11-24T09:39:52;6.40;99.90
10885;DHT22;5495;53.252;10.390;2022-11-24T09:42:32;6.50;99.90
10885;DHT22;5495;53.252;10.390;2022-11-24T09:45:15;6.50;99.90
10885;DHT22;5495;53.252;10.390;2022-11-24T09:47:55;6.60;99.90
10885;DHT22;5495;53.252;10.390;2022-11-24T09:50:25;6.80;99.90
10885;DHT22;5495;53.252;10.390;2022-11-24T09:52:57;6.90;99.90
10885;DHT22;5495;53.252;10.390;2022-11-24T09:55:40;7.00;99.90
10885;DHT22;5495;53.252;10.390;2022-11-24T09:58:17;7.10;99.90
10885;DHT22;5495;53.252;10.390;2022-11-24T10:00:47;7.30;99.90
10885;DHT22;5495;53.252;10.390;2022-11-24T10:03:19;7.50;99.90
10885;DHT22;5495;53.252;10.390;2022-11-24T10:05:50;7.60;99.90
10885;DHT22;5495;53.252;10.390;2022-11-24T10:08:32;7.70;99.90
10885;DHT22;5495;53.252;10.390;2022-11-24T10:11:04;7.80;99.90
10885;DHT22;5495;53.252;10.390;2022-11-24T10:13:56;7.70;99.90
10885;DHT22;5495;53.252;10.390;2022-11-24T10:16:35;7.70;99.90
10885;DHT22;5495;53.252;10.390;2022-11-24T10:19:11;7.80;99.90
10885;DHT22;5495;53.252;10.390;2022-11-24T10:21:53;7.80;99.90
10885;DHT22;5495;53.252;10.390;2022-11-24T10:24:43;8.00;99.90
10885;DHT22;5495;53.252;10.390;2022-11-24T10:27:15;8.20;99.90
10885;DHT22;5495;53.252;10.390;2022-11-24T10:29:44;8.30;99.90
10885;DHT22;5495;53.252;10.390;2022-11-24T10:32:17;8.00;99.90
10885;DHT22;5495;53.252;10.390;2022-11-24T10:34:47;8.50;99.90
10885;DHT22;5495;53.252;10.390;2022-11-24T10:37:19;8.50;99.90
10885;DHT22;5495;53.252;10.390;2022-11-24T10:42:23;8.40;99.90
10885;DHT22;5495;53.252;10.390;2022-11-24T10:45:09;8.30;99.90
10885;DHT22;5495;53.252;10.390;2022-11-24T10:47:37;8.20;99.90
10885;DHT22;5495;53.252;10.390;2022-11-24T10:50:11;8.20;99.90
10885;DHT22;5495;53.252;10.390;2022-11-24T10:52:40;8.20;99.90
10885;DHT22;5495;53.252;10.390;2022-11-24T10:55:11;8.20;99.90
10885;DHT22;5495;53.252;10.390;2022-11-24T10:57:39;8.20;99.90
10885;DHT22;5495;53.252;10.390;2022-11-24T11:00:29;8.30;99.90
10885;DHT22;5495;53.252;10.390;2022-11-24T11:03:15;8.40;99.90
10885;DHT22;5495;53.252;10.390;2022-11-24T11:05:43;8.30;99.90
10885;DHT22;5495;53.252;10.390;2022-11-24T11:08:18;8.40;99.90
10885;DHT22;5495;53.252;10.390;2022-11-24T11:10:48;8.40;99.90
10885;DHT22;5495;53.252;10.390;2022-11-24T11:13:21;8.40;99.90
10885;DHT22;5495;53.252;10.390;2022-11-24T11:15:48;8.30;99.90
10885;DHT22;5495;53.252;10.390;2022-11-24T11:18:17;8.30;99.90
10885;DHT22;5495;53.252;10.390;2022-11-24T11:20:49;8.30;99.90
10885;DHT22;5495;53.252;10.390;2022-11-24T11:23:21;8.30;99.90
10885;DHT22;5495;53.252;10.390;2022-11-24T11:25:50;8.30;99.90
10885;DHT22;5495;53.252;10.390;2022-11-24T11:28:26;8.40;99.90
10885;DHT22;5495;53.252;10.390;2022-11-24T11:30:59;8.40;99.90
10885;DHT22;5495;53.252;10.390;2022-11-24T11:33:28;8.50;99.90
10885;DHT22;5495;53.252;10.390;2022-11-24T11:36:06;8.50;99.90
10885;DHT22;5495;53.252;10.390;2022-11-24T11:38:38;8.50;99.90
10885;DHT22;5495;53.252;10.390;2022-11-24T11:41:16;8.50;99.90
10885;DHT22;5495;53.252;10.390;2022-11-24T11:43:48;8.50;99.90
10885;DHT22;5495;53.252;10.390;2022-11-24T11:46:16;8.50;99.90
10885;DHT22;5495;53.252;10.390;2022-11-24T11:48:44;8.40;99.90
10885;DHT22;5495;53.252;10.390;2022-11-24T11:51:25;8.50;99.90
10885;DHT22;5495;53.252;10.390;2022-11-24T11:54:06;8.50;99.90
10885;DHT22;5495;53.252;10.390;2022-11-24T11:56:40;8.50;99.90
10885;DHT22;5495;53.252;10.390;2022-11-24T11:59:36;8.60;99.90
10885;DHT22;5495;53.252;10.390;2022-11-24T12:02:32;8.60;99.90
10885;DHT22;5495;53.252;10.390;2022-11-24T12:05:10;8.70;99.90
10885;DHT22;5495;53.252;10.390;2022-11-24T12:07:52;8.80;99.90
10885;DHT22;5495;53.252;10.390;2022-11-24T12:10:30;8.90;99.90
10885;DHT22;5495;53.252;10.390;2022-11-24T12:13:32;8.90;99.90
10885;DHT22;5495;53.252;10.390;2022-11-24T12:16:15;8.90;99.90
10885;DHT22;5495;53.252;10.390;2022-11-24T12:18:51;8.80;99.90
10885;DHT22;5495;53.252;10.390;2022-11-24T12:21:28;8.80;99.90
10885;DHT22;5495;53.252;10.390;2022-11-24T12:24:07;8.80;99.90
10885;DHT22;5495;53.252;10.390;2022-11-24T12:26:42;8.70;99.90
10885;DHT22;5495;53.252;10.390;2022-11-24T12:29:34;8.70;99.90
10885;DHT22;5495;53.252;10.390;2022-11-24T12:32:13;8.60;99.90
10885;DHT22;5495;53.252;10.390;2022-11-24T12:34:48;8.60;99.90
10885;DHT22;5495;53.252;10.390;2022-11-24T12:37:37;8.50;99.90
10885;DHT22;5495;53.252;10.390;2022-11-24T12:40:16;8.50;99.90
10885;DHT22;5495;53.252;10.390;2022-11-24T12:42:56;8.50;99.90
10885;DHT22;5495;53.252;10.390;2022-11-24T12:45:33;8.50;99.90
10885;DHT22;5495;53.252;10.390;2022-11-24T12:48:17;8.50;99.90
10885;DHT22;5495;53.252;10.390;2022-11-24T12:50:48;8.50;99.90
10885;DHT22;5495;53.252;10.390;2022-11-24T12:53:21;8.50;99.90
10885;DHT22;5495;53.252;10.390;2022-11-24T12:55:50;8.40;99.90
10885;DHT22;5495;53.252;10.390;2022-11-24T12:58:23;8.40;99.90
10885;DHT22;5495;53.252;10.390;2022-11-24T13:01:03;8.40;99.90
10885;DHT22;5495;53.252;10.390;2022-11-24T13:03:43;8.30;99.90
10885;DHT22;5495;53.252;10.390;2022-11-24T13:06:14;8.30;99.90
10885;DHT22;5495;53.252;10.390;2022-11-24T13:08:43;8.30;99.90
10885;DHT22;5495;53.252;10.390;2022-11-24T13:11:41;8.30;99.90
10885;DHT22;5495;53.252;10.390;2022-11-24T13:14:14;8.20;99.90
10885;DHT22;5495;53.252;10.390;2022-11-24T13:16:53;8.20;99.90
10885;DHT22;5495;53.252;10.390;2022-11-24T13:19:21;8.20;99.90
10885;DHT22;5495;53.252;10.390;2022-11-24T13:22:09;8.20;99.90
10885;DHT22;5495;53.252;10.390;2022-11-24T13:24:41;8.20;99.90
10885;DHT22;5495;53.252;10.390;2022-11-24T13:27:39;8.10;99.90
10885;DHT22;5495;53.252;10.390;2022-11-24T13:30:52;8.10;99.90
10885;DHT22;5495;53.252;10.390;2022-11-24T13:33:38;8.00;99.90
10885;DHT22;5495;53.252;10.390;2022-11-24T13:36:32;8.10;99.90
10885;DHT22;5495;53.252;10.390;2022-11-24T13:39:01;8.10;99.90
10885;DHT22;5495;53.252;10.390;2022-11-24T13:44:49;8.10;99.90
10885;DHT22;5495;53.252;10.390;2022-11-24T13:47:38;8.10;99.90
10885;DHT22;5495;53.252;10.390;2022-11-24T13:50:13;8.00;99.90
10885;DHT22;5495;53.252;10.390;2022-11-24T13:52:55;8.10;99.90
10885;DHT22;5495;53.252;10.390;2022-11-24T13:55:33;8.00;99.90
10885;DHT22;5495;53.252;10.390;2022-11-24T13:58:28;8.00;99.90
10885;DHT22;5495;53.252;10.390;2022-11-24T14:01:13;8.00;99.90
10885;DHT22;5495;53.252;10.390;2022-11-24T14:03:55;8.00;99.90
10885;DHT22;5495;53.252;10.390;2022-11-24T14:06:29;8.00;99.90
10885;DHT22;5495;53.252;10.390;2022-11-24T14:09:02;8.00;99.90
10885;DHT22;5495;53.252;10.390;2022-11-24T14:11:34;7.90;99.90
10885;DHT22;5495;53.252;10.390;2022-11-24T14:14:11;7.90;99.90
10885;DHT22;5495;53.252;10.390;2022-11-24T14:16:41;7.90;99.90
10885;DHT22;5495;53.252;10.390;2022-11-24T14:19:10;7.90;99.90
10885;DHT22;5495;53.252;10.390;2022-11-24T14:21:38;7.90;99.90
10885;DHT22;5495;53.252;10.390;2022-11-24T14:24:11;7.80;99.90
10885;DHT22;5495;53.252;10.390;2022-11-24T14:26:45;7.90;99.90
10885;DHT22;5495;53.252;10.390;2022-11-24T14:29:17;7.90;99.90
10885;DHT22;5495;53.252;10.390;2022-11-24T14:31:53;7.90;99.90
10885;DHT22;5495;53.252;10.390;2022-11-24T14:34:22;7.50;99.90
10885;DHT22;5495;53.252;10.390;2022-11-24T14:36:54;8.50;99.90
10885;DHT22;5495;53.252;10.390;2022-11-24T14:39:24;7.80;99.90
10885;DHT22;5495;53.252;10.390;2022-11-24T14:41:54;7.80;99.90
10885;DHT22;5495;53.252;10.390;2022-11-24T14:44:26;7.80;99.90
10885;DHT22;5495;53.252;10.390;2022-11-24T14:47:02;7.80;99.90
10885;DHT22;5495;53.252;10.390;2022-11-24T14:49:33;7.80;99.90
10885;DHT22;5495;53.252;10.390;2022-11-24T14:52:11;7.80;99.90
10885;DHT22;5495;53.252;10.390;2022-11-24T14:54:46;7.80;99.90
10885;DHT22;5495;53.252;10.390;2022-11-24T14:57:29;7.70;99.90
10885;DHT22;5495;53.252;10.390;2022-11-24T15:00:17;7.80;99.90
10885;DHT22;5495;53.252;10.390;2022-11-24T15:02:46;7.70;99.90
10885;DHT22;5495;53.252;10.390;2022-11-24T15:05:16;7.70;99.90
10885;DHT22;5495;53.252;10.390;2022-11-24T15:07:47;7.70;99.90
10885;DHT22;5495;53.252;10.390;2022-11-24T15:10:21;7.70;99.90
10885;DHT22;5495;53.252;10.390;2022-11-24T15:12:52;7.60;99.90
10885;DHT22;5495;53.252;10.390;2022-11-24T15:15:22;7.70;99.90
10885;DHT22;5495;53.252;10.390;2022-11-24T15:17:51;7.60;99.90
10885;DHT22;5495;53.252;10.390;2022-11-24T15:20:21;7.60;99.90
10885;DHT22;5495;53.252;10.390;2022-11-24T15:23:12;7.60;99.90
10885;DHT22;5495;53.252;10.390;2022-11-24T15:25:44;7.60;99.90
10885;DHT22;5495;53.252;10.390;2022-11-24T15:28:11;7.50;99.90
10885;DHT22;5495;53.252;10.390;2022-11-24T15:30:38;7.50;99.90
10885;DHT22;5495;53.252;10.390;2022-11-24T15:33:12;7.50;99.90
10885;DHT22;5495;53.252;10.390;2022-11-24T15:35:40;7.50;99.90
10885;DHT22;5495;53.252;10.390;2022-11-24T15:38:08;7.50;99.90
10885;DHT22;5495;53.252;10.390;2022-11-24T15:40:36;7.50;99.90
10885;DHT22;5495;53.252;10.390;2022-11-24T15:45:54;7.50;99.90
10885;DHT22;5495;53.252;10.390;2022-11-24T15:48:21;7.50;99.90
10885;DHT22;5495;53.252;10.390;2022-11-24T15:50:48;7.50;99.90
10885;DHT22;5495;53.252;10.390;2022-11-24T15:53:20;7.40;99.90
10885;DHT22;5495;53.252;10.390;2022-11-24T15:55:48;7.40;99.90
10885;DHT22;5495;53.252;10.390;2022-11-24T15:58:18;7.40;99.90
10885;DHT22;5495;53.252;10.390;2022-11-24T16:00:45;7.40;99.90
10885;DHT22;5495;53.252;10.390;2022-11-24T16:03:12;7.30;99.90
10885;DHT22;5495;53.252;10.390;2022-11-24T16:05:39;7.20;99.90
10885;DHT22;5495;53.252;10.390;2022-11-24T16:08:11;7.20;99.90
10885;DHT22;5495;53.252;10.390;2022-11-24T16:10:40;7.10;99.90
10885;DHT22;5495;53.252;10.390;2022-11-24T16:13:07;7.00;99.90
10885;DHT22;5495;53.252;10.390;2022-11-24T16:15:34;6.90;99.90
10885;DHT22;5495;53.252;10.390;2022-11-24T16:18:02;6.80;99.90